sensor_id;sensor_type;location;lat;lon;timestamp;P1;durP1;ratioP1;P2;durP2;ratioP2
59271;SDS011;45043;51.068;7.026;2023-04-24T00:01:31;4.00;;;1.47;;
59271;SDS011;45043;51.068;7.026;2023-04-24T00:04:34;1.10;;;1.10;;
59271;SDS011;45043;51.068;7.026;2023-04-24T00:07:35;1.50;;;1.40;;
59271;SDS011;45043;51.068;7.026;2023-04-24T00:10:36;1.83;;;1.60;;
59271;SDS011;45043;51.068;7.026;2023-04-24T00:13:37;2.27;;;1.50;;
59271;SDS011;45043;51.068;7.026;2023-04-24T00:16:37;1.20;;;1.20;;
59271;SDS011;45043;51.068;7.026;2023-04-24T00:19:38;1.20;;;1.20;;
59271;SDS011;45043;51.068;7.026;2023-04-24T00:22:38;1.63;;;1.53;;
59271;SDS011;45043;51.068;7.026;2023-04-24T00:25:39;1.37;;;1.27;;
59271;SDS011;45043;51.068;7.026;2023-04-24T00:28:40;1.80;;;1.60;;
59271;SDS011;45043;51.068;7.026;2023-04-24T00:31:40;1.60;;;1.50;;
59271;SDS011;45043;51.068;7.026;2023-04-24T00:34:41;2.20;;;1.97;;
59271;SDS011;45043;51.068;7.026;2023-04-24T00:37:42;1.70;;;1.60;;
59271;SDS011;45043;51.068;7.026;2023-04-24T00:40:42;2.07;;;1.63;;
59271;SDS011;45043;51.068;7.026;2023-04-24T00:43:42;1.37;;;1.30;;
59271;SDS011;45043;51.068;7.026;2023-04-24T00:46:43;1.50;;;1.40;;
59271;SDS011;45043;51.068;7.026;2023-04-24T00:49:43;1.50;;;1.40;;
59271;SDS011;45043;51.068;7.026;2023-04-24T00:52:44;1.67;;;1.57;;
59271;SDS011;45043;51.068;7.026;2023-04-24T00:55:44;1.43;;;1.40;;
59271;SDS011;45043;51.068;7.026;2023-04-24T00:58:45;1.60;;;1.50;;
59271;SDS011;45043;51.068;7.026;2023-04-24T01:01:47;2.20;;;1.50;;
59271;SDS011;45043;51.068;7.026;2023-04-24T01:04:47;1.60;;;1.50;;
59271;SDS011;45043;51.068;7.026;2023-04-24T01:07:49;1.60;;;1.50;;
59271;SDS011;45043;51.068;7.026;2023-04-24T01:10:53;1.43;;;1.33;;
59271;SDS011;45043;51.068;7.026;2023-04-24T01:13:54;3.17;;;2.30;;
59271;SDS011;45043;51.068;7.026;2023-04-24T01:16:54;1.70;;;1.60;;
59271;SDS011;45043;51.068;7.026;2023-04-24T01:19:55;1.73;;;1.63;;
59271;SDS011;45043;51.068;7.026;2023-04-24T01:22:57;2.17;;;1.47;;
59271;SDS011;45043;51.068;7.026;2023-04-24T01:25:58;2.07;;;1.80;;
59271;SDS011;45043;51.068;7.026;2023-04-24T01:28:59;2.00;;;1.90;;
59271;SDS011;45043;51.068;7.026;2023-04-24T01:32:00;1.70;;;1.60;;
59271;SDS011;45043;51.068;7.026;2023-04-24T01:35:01;1.80;;;1.70;;
59271;SDS011;45043;51.068;7.026;2023-04-24T01:38:02;1.97;;;1.80;;
59271;SDS011;45043;51.068;7.026;2023-04-24T01:41:03;2.53;;;2.00;;
59271;SDS011;45043;51.068;7.026;2023-04-24T01:44:03;2.10;;;2.00;;
59271;SDS011;45043;51.068;7.026;2023-04-24T01:47:04;2.40;;;2.20;;
59271;SDS011;45043;51.068;7.026;2023-04-24T01:50:05;1.80;;;1.70;;
59271;SDS011;45043;51.068;7.026;2023-04-24T01:53:07;2.97;;;2.37;;
59271;SDS011;45043;51.068;7.026;2023-04-24T01:56:08;4.60;;;3.13;;
59271;SDS011;45043;51.068;7.026;2023-04-24T01:59:09;4.33;;;3.67;;
59271;SDS011;45043;51.068;7.026;2023-04-24T02:02:11;4.43;;;4.03;;
59271;SDS011;45043;51.068;7.026;2023-04-24T02:05:11;4.43;;;3.77;;
59271;SDS011;45043;51.068;7.026;2023-04-24T02:08:12;7.80;;;4.10;;
59271;SDS011;45043;51.068;7.026;2023-04-24T02:11:12;5.83;;;4.63;;
59271;SDS011;45043;51.068;7.026;2023-04-24T02:14:12;4.43;;;4.03;;
59271;SDS011;45043;51.068;7.026;2023-04-24T02:17:13;8.23;;;4.37;;
59271;SDS011;45043;51.068;7.026;2023-04-24T02:20:15;4.87;;;4.37;;
59271;SDS011;45043;51.068;7.026;2023-04-24T02:23:15;4.80;;;4.13;;
59271;SDS011;45043;51.068;7.026;2023-04-24T02:26:16;6.67;;;5.10;;
59271;SDS011;45043;51.068;7.026;2023-04-24T02:29:18;5.13;;;4.73;;
59271;SDS011;45043;51.068;7.026;2023-04-24T02:32:18;5.10;;;4.60;;
59271;SDS011;45043;51.068;7.026;2023-04-24T02:35:18;5.03;;;4.53;;
59271;SDS011;45043;51.068;7.026;2023-04-24T02:38:19;8.13;;;5.20;;
59271;SDS011;45043;51.068;7.026;2023-04-24T02:41:19;6.40;;;5.40;;
59271;SDS011;45043;51.068;7.026;2023-04-24T02:44:20;7.07;;;6.27;;
59271;SDS011;45043;51.068;7.026;2023-04-24T02:47:23;8.13;;;6.30;;
59271;SDS011;45043;51.068;7.026;2023-04-24T02:50:23;8.57;;;6.80;;
59271;SDS011;45043;51.068;7.026;2023-04-24T02:53:23;7.83;;;6.23;;
59271;SDS011;45043;51.068;7.026;2023-04-24T02:56:24;7.93;;;6.63;;
59271;SDS011;45043;51.068;7.026;2023-04-24T02:59:25;9.53;;;6.17;;
59271;SDS011;45043;51.068;7.026;2023-04-24T03:02:27;8.73;;;6.47;;
59271;SDS011;45043;51.068;7.026;2023-04-24T03:05:28;8.37;;;6.10;;
59271;SDS011;45043;51.068;7.026;2023-04-24T03:08:28;8.57;;;6.40;;
59271;SDS011;45043;51.068;7.026;2023-04-24T03:11:29;8.53;;;6.47;;
59271;SDS011;45043;51.068;7.026;2023-04-24T03:14:29;7.40;;;5.80;;
59271;SDS011;45043;51.068;7.026;2023-04-24T03:17:31;8.83;;;6.60;;
59271;SDS011;45043;51.068;7.026;2023-04-24T03:20:31;9.83;;;6.53;;
59271;SDS011;45043;51.068;7.026;2023-04-24T03:23:32;9.30;;;6.63;;
59271;SDS011;45043;51.068;7.026;2023-04-24T03:26:32;7.90;;;6.37;;
59271;SDS011;45043;51.068;7.026;2023-04-24T03:29:47;7.90;;;6.60;;
59271;SDS011;45043;51.068;7.026;2023-04-24T03:32:49;8.73;;;6.67;;
59271;SDS011;45043;51.068;7.026;2023-04-24T03:35:55;8.40;;;6.53;;
59271;SDS011;45043;51.068;7.026;2023-04-24T03:38:56;8.20;;;6.20;;
59271;SDS011;45043;51.068;7.026;2023-04-24T03:42:06;10.27;;;7.10;;
59271;SDS011;45043;51.068;7.026;2023-04-24T03:45:19;10.23;;;6.83;;
59271;SDS011;45043;51.068;7.026;2023-04-24T03:48:22;9.37;;;6.87;;
59271;SDS011;45043;51.068;7.026;2023-04-24T03:51:24;8.10;;;7.13;;
59271;SDS011;45043;51.068;7.026;2023-04-24T03:54:28;10.37;;;7.87;;
59271;SDS011;45043;51.068;7.026;2023-04-24T03:57:29;8.93;;;7.40;;
59271;SDS011;45043;51.068;7.026;2023-04-24T04:00:46;8.90;;;7.57;;
59271;SDS011;45043;51.068;7.026;2023-04-24T04:04:13;9.53;;;7.03;;
59271;SDS011;45043;51.068;7.026;2023-04-24T04:07:15;9.63;;;7.33;;
59271;SDS011;45043;51.068;7.026;2023-04-24T04:10:15;9.17;;;6.70;;
59271;SDS011;45043;51.068;7.026;2023-04-24T04:13:17;9.43;;;7.43;;
59271;SDS011;45043;51.068;7.026;2023-04-24T04:16:18;9.93;;;8.00;;
59271;SDS011;45043;51.068;7.026;2023-04-24T04:19:20;8.93;;;7.00;;
59271;SDS011;45043;51.068;7.026;2023-04-24T04:22:21;9.50;;;7.10;;
59271;SDS011;45043;51.068;7.026;2023-04-24T04:25:24;8.07;;;6.53;;
59271;SDS011;45043;51.068;7.026;2023-04-24T04:28:25;9.57;;;7.90;;
59271;SDS011;45043;51.068;7.026;2023-04-24T04:31:26;10.47;;;7.50;;
59271;SDS011;45043;51.068;7.026;2023-04-24T04:34:27;9.57;;;7.47;;
59271;SDS011;45043;51.068;7.026;2023-04-24T04:37:28;10.37;;;7.70;;
59271;SDS011;45043;51.068;7.026;2023-04-24T04:40:54;9.93;;;7.20;;
59271;SDS011;45043;51.068;7.026;2023-04-24T04:43:57;8.93;;;6.63;;
59271;SDS011;45043;51.068;7.026;2023-04-24T04:47:01;8.53;;;6.60;;
59271;SDS011;45043;51.068;7.026;2023-04-24T04:50:07;8.73;;;6.57;;
59271;SDS011;45043;51.068;7.026;2023-04-24T04:53:08;10.53;;;7.60;;
59271;SDS011;45043;51.068;7.026;2023-04-24T04:56:12;9.27;;;7.33;;
59271;SDS011;45043;51.068;7.026;2023-04-24T04:59:19;11.17;;;7.63;;
59271;SDS011;45043;51.068;7.026;2023-04-24T05:02:21;8.20;;;7.00;;
59271;SDS011;45043;51.068;7.026;2023-04-24T05:05:22;8.53;;;6.67;;
59271;SDS011;45043;51.068;7.026;2023-04-24T05:08:22;10.30;;;5.87;;
59271;SDS011;45043;51.068;7.026;2023-04-24T05:11:23;6.47;;;5.50;;
59271;SDS011;45043;51.068;7.026;2023-04-24T05:14:24;10.73;;;6.43;;
59271;SDS011;45043;51.068;7.026;2023-04-24T05:17:24;7.83;;;5.80;;
59271;SDS011;45043;51.068;7.026;2023-04-24T05:20:28;6.50;;;5.47;;
59271;SDS011;45043;51.068;7.026;2023-04-24T05:23:29;6.80;;;5.43;;
59271;SDS011;45043;51.068;7.026;2023-04-24T05:26:30;6.73;;;5.30;;
59271;SDS011;45043;51.068;7.026;2023-04-24T05:29:33;7.00;;;5.83;;
59271;SDS011;45043;51.068;7.026;2023-04-24T05:32:33;6.47;;;5.40;;
59271;SDS011;45043;51.068;7.026;2023-04-24T05:35:34;7.23;;;5.83;;
59271;SDS011;45043;51.068;7.026;2023-04-24T05:38:35;7.93;;;5.83;;
59271;SDS011;45043;51.068;7.026;2023-04-24T05:41:35;6.53;;;5.53;;
59271;SDS011;45043;51.068;7.026;2023-04-24T05:44:36;6.37;;;5.33;;
59271;SDS011;45043;51.068;7.026;2023-04-24T05:47:36;12.00;;;5.70;;
59271;SDS011;45043;51.068;7.026;2023-04-24T05:50:37;5.57;;;4.97;;
59271;SDS011;45043;51.068;7.026;2023-04-24T05:53:38;5.63;;;5.00;;
59271;SDS011;45043;51.068;7.026;2023-04-24T05:56:39;6.00;;;5.23;;
59271;SDS011;45043;51.068;7.026;2023-04-24T05:59:41;7.40;;;5.50;;
59271;SDS011;45043;51.068;7.026;2023-04-24T06:02:42;9.27;;;4.50;;
59271;SDS011;45043;51.068;7.026;2023-04-24T06:05:45;6.97;;;4.70;;
59271;SDS011;45043;51.068;7.026;2023-04-24T06:08:46;7.50;;;5.03;;
59271;SDS011;45043;51.068;7.026;2023-04-24T06:11:48;5.33;;;4.70;;
59271;SDS011;45043;51.068;7.026;2023-04-24T06:14:50;6.00;;;4.60;;
59271;SDS011;45043;51.068;7.026;2023-04-24T06:17:59;6.50;;;4.93;;
59271;SDS011;45043;51.068;7.026;2023-04-24T06:21:00;6.53;;;4.70;;
59271;SDS011;45043;51.068;7.026;2023-04-24T06:24:00;6.20;;;4.23;;
59271;SDS011;45043;51.068;7.026;2023-04-24T06:27:00;7.23;;;4.07;;
59271;SDS011;45043;51.068;7.026;2023-04-24T06:30:01;9.07;;;4.30;;
59271;SDS011;45043;51.068;7.026;2023-04-24T06:33:02;8.00;;;4.60;;
59271;SDS011;45043;51.068;7.026;2023-04-24T06:36:03;5.47;;;4.50;;
59271;SDS011;45043;51.068;7.026;2023-04-24T06:39:04;4.07;;;3.53;;
59271;SDS011;45043;51.068;7.026;2023-04-24T06:42:04;5.07;;;3.77;;
59271;SDS011;45043;51.068;7.026;2023-04-24T06:45:08;4.57;;;3.53;;
59271;SDS011;45043;51.068;7.026;2023-04-24T06:48:08;3.00;;;2.80;;
59271;SDS011;45043;51.068;7.026;2023-04-24T06:51:10;2.33;;;2.13;;
59271;SDS011;45043;51.068;7.026;2023-04-24T06:54:10;2.47;;;2.27;;
59271;SDS011;45043;51.068;7.026;2023-04-24T06:57:11;3.47;;;2.83;;
59271;SDS011;45043;51.068;7.026;2023-04-24T07:00:11;2.80;;;2.60;;
59271;SDS011;45043;51.068;7.026;2023-04-24T07:03:12;3.00;;;2.60;;
59271;SDS011;45043;51.068;7.026;2023-04-24T07:06:13;2.43;;;2.23;;
59271;SDS011;45043;51.068;7.026;2023-04-24T07:09:14;2.80;;;2.60;;
59271;SDS011;45043;51.068;7.026;2023-04-24T07:12:16;3.47;;;2.57;;
59271;SDS011;45043;51.068;7.026;2023-04-24T07:15:17;2.30;;;2.10;;
59271;SDS011;45043;51.068;7.026;2023-04-24T07:18:17;2.47;;;2.27;;
59271;SDS011;45043;51.068;7.026;2023-04-24T07:21:18;3.10;;;2.73;;
59271;SDS011;45043;51.068;7.026;2023-04-24T07:24:18;3.90;;;2.13;;
59271;SDS011;45043;51.068;7.026;2023-04-24T07:27:19;2.57;;;2.37;;
59271;SDS011;45043;51.068;7.026;2023-04-24T07:30:19;4.33;;;2.40;;
59271;SDS011;45043;51.068;7.026;2023-04-24T07:33:20;2.43;;;2.23;;
59271;SDS011;45043;51.068;7.026;2023-04-24T07:36:20;3.33;;;2.70;;
59271;SDS011;45043;51.068;7.026;2023-04-24T07:39:21;7.00;;;2.80;;
59271;SDS011;45043;51.068;7.026;2023-04-24T07:42:21;4.33;;;2.97;;
59271;SDS011;45043;51.068;7.026;2023-04-24T07:45:21;3.30;;;2.73;;
59271;SDS011;45043;51.068;7.026;2023-04-24T07:48:24;4.00;;;3.03;;
59271;SDS011;45043;51.068;7.026;2023-04-24T07:51:26;3.73;;;3.27;;
59271;SDS011;45043;51.068;7.026;2023-04-24T07:54:30;2.47;;;2.27;;
59271;SDS011;45043;51.068;7.026;2023-04-24T07:57:30;2.57;;;2.40;;
59271;SDS011;45043;51.068;7.026;2023-04-24T08:00:31;2.50;;;2.30;;
59271;SDS011;45043;51.068;7.026;2023-04-24T08:03:31;2.43;;;2.03;;
59271;SDS011;45043;51.068;7.026;2023-04-24T08:06:32;2.53;;;2.20;;
59271;SDS011;45043;51.068;7.026;2023-04-24T08:09:32;2.40;;;2.20;;
59271;SDS011;45043;51.068;7.026;2023-04-24T08:12:32;2.53;;;2.43;;
59271;SDS011;45043;51.068;7.026;2023-04-24T08:15:33;2.00;;;1.90;;
59271;SDS011;45043;51.068;7.026;2023-04-24T08:18:34;2.40;;;2.20;;
59271;SDS011;45043;51.068;7.026;2023-04-24T08:21:35;3.00;;;2.10;;
59271;SDS011;45043;51.068;7.026;2023-04-24T08:24:36;2.10;;;2.00;;
59271;SDS011;45043;51.068;7.026;2023-04-24T08:27:36;2.40;;;2.20;;
59271;SDS011;45043;51.068;7.026;2023-04-24T08:30:37;2.87;;;2.67;;
59271;SDS011;45043;51.068;7.026;2023-04-24T08:33:38;2.83;;;2.37;;
59271;SDS011;45043;51.068;7.026;2023-04-24T08:36:40;2.27;;;2.10;;
59271;SDS011;45043;51.068;7.026;2023-04-24T08:39:42;3.70;;;2.70;;
59271;SDS011;45043;51.068;7.026;2023-04-24T08:42:43;2.40;;;2.20;;
59271;SDS011;45043;51.068;7.026;2023-04-24T08:45:44;2.80;;;2.60;;
59271;SDS011;45043;51.068;7.026;2023-04-24T08:48:45;2.60;;;2.40;;
59271;SDS011;45043;51.068;7.026;2023-04-24T08:51:45;2.90;;;2.70;;
59271;SDS011;45043;51.068;7.026;2023-04-24T08:54:47;2.70;;;2.30;;
59271;SDS011;45043;51.068;7.026;2023-04-24T08:57:50;3.57;;;3.27;;
59271;SDS011;45043;51.068;7.026;2023-04-24T09:00:56;2.90;;;2.70;;
59271;SDS011;45043;51.068;7.026;2023-04-24T09:03:57;3.20;;;2.90;;
59271;SDS011;45043;51.068;7.026;2023-04-24T09:06:58;3.87;;;3.50;;
59271;SDS011;45043;51.068;7.026;2023-04-24T09:09:59;7.00;;;3.80;;
59271;SDS011;45043;51.068;7.026;2023-04-24T09:13:01;4.00;;;3.60;;
59271;SDS011;45043;51.068;7.026;2023-04-24T09:16:02;5.53;;;4.57;;
59271;SDS011;45043;51.068;7.026;2023-04-24T09:19:02;4.60;;;4.20;;
59271;SDS011;45043;51.068;7.026;2023-04-24T09:22:06;4.37;;;3.80;;
59271;SDS011;45043;51.068;7.026;2023-04-24T09:25:09;5.67;;;4.80;;
59271;SDS011;45043;51.068;7.026;2023-04-24T09:28:12;5.63;;;5.03;;
59271;SDS011;45043;51.068;7.026;2023-04-24T09:31:16;4.83;;;4.00;;
59271;SDS011;45043;51.068;7.026;2023-04-24T09:34:22;5.53;;;4.87;;
59271;SDS011;45043;51.068;7.026;2023-04-24T09:37:28;5.50;;;5.00;;
59271;SDS011;45043;51.068;7.026;2023-04-24T09:40:29;5.23;;;4.47;;
59271;SDS011;45043;51.068;7.026;2023-04-24T09:43:30;5.77;;;4.83;;
59271;SDS011;45043;51.068;7.026;2023-04-24T09:46:31;6.47;;;5.87;;
59271;SDS011;45043;51.068;7.026;2023-04-24T09:49:31;7.33;;;5.57;;
59271;SDS011;45043;51.068;7.026;2023-04-24T09:52:33;6.17;;;5.40;;
59271;SDS011;45043;51.068;7.026;2023-04-24T09:55:33;7.80;;;6.40;;
59271;SDS011;45043;51.068;7.026;2023-04-24T09:58:39;8.43;;;6.33;;
59271;SDS011;45043;51.068;7.026;2023-04-24T10:01:40;11.63;;;7.03;;
59271;SDS011;45043;51.068;7.026;2023-04-24T10:04:56;9.87;;;6.83;;
59271;SDS011;45043;51.068;7.026;2023-04-24T10:08:06;11.57;;;7.47;;
59271;SDS011;45043;51.068;7.026;2023-04-24T10:11:07;30.00;;;16.63;;
59271;SDS011;45043;51.068;7.026;2023-04-24T10:14:09;16.43;;;9.80;;
59271;SDS011;45043;51.068;7.026;2023-04-24T10:17:12;14.10;;;8.13;;
59271;SDS011;45043;51.068;7.026;2023-04-24T10:20:14;31.87;;;15.73;;
59271;SDS011;45043;51.068;7.026;2023-04-24T10:23:14;19.73;;;10.10;;
59271;SDS011;45043;51.068;7.026;2023-04-24T10:26:15;13.23;;;8.03;;
59271;SDS011;45043;51.068;7.026;2023-04-24T10:29:18;14.73;;;9.30;;
59271;SDS011;45043;51.068;7.026;2023-04-24T10:32:19;15.70;;;8.50;;
59271;SDS011;45043;51.068;7.026;2023-04-24T10:35:20;16.17;;;8.73;;
59271;SDS011;45043;51.068;7.026;2023-04-24T10:38:22;10.60;;;6.90;;
59271;SDS011;45043;51.068;7.026;2023-04-24T10:41:26;12.50;;;7.47;;
59271;SDS011;45043;51.068;7.026;2023-04-24T10:44:35;10.03;;;7.10;;
59271;SDS011;45043;51.068;7.026;2023-04-24T10:47:39;12.97;;;7.40;;
59271;SDS011;45043;51.068;7.026;2023-04-24T10:50:42;11.13;;;6.83;;
59271;SDS011;45043;51.068;7.026;2023-04-24T10:53:44;11.33;;;6.43;;
59271;SDS011;45043;51.068;7.026;2023-04-24T10:56:45;13.83;;;7.03;;
59271;SDS011;45043;51.068;7.026;2023-04-24T10:59:46;9.80;;;6.67;;
59271;SDS011;45043;51.068;7.026;2023-04-24T11:02:47;10.43;;;5.77;;
59271;SDS011;45043;51.068;7.026;2023-04-24T11:05:51;9.73;;;5.60;;
59271;SDS011;45043;51.068;7.026;2023-04-24T11:08:52;9.07;;;5.43;;
59271;SDS011;45043;51.068;7.026;2023-04-24T11:12:05;8.90;;;5.03;;
59271;SDS011;45043;51.068;7.026;2023-04-24T11:15:11;10.20;;;5.00;;
59271;SDS011;45043;51.068;7.026;2023-04-24T11:18:14;9.07;;;4.70;;
59271;SDS011;45043;51.068;7.026;2023-04-24T11:21:16;12.57;;;5.83;;
59271;SDS011;45043;51.068;7.026;2023-04-24T11:27:41;9.80;;;5.90;;
59271;SDS011;45043;51.068;7.026;2023-04-24T11:30:43;8.70;;;5.00;;
59271;SDS011;45043;51.068;7.026;2023-04-24T11:33:43;7.43;;;4.97;;
59271;SDS011;45043;51.068;7.026;2023-04-24T11:36:44;12.27;;;5.40;;
59271;SDS011;45043;51.068;7.026;2023-04-24T11:39:47;9.27;;;5.37;;
59271;SDS011;45043;51.068;7.026;2023-04-24T11:42:51;9.40;;;5.63;;
59271;SDS011;45043;51.068;7.026;2023-04-24T11:45:55;8.93;;;5.57;;
59271;SDS011;45043;51.068;7.026;2023-04-24T11:49:00;8.70;;;5.53;;
59271;SDS011;45043;51.068;7.026;2023-04-24T11:52:00;10.87;;;4.70;;
59271;SDS011;45043;51.068;7.026;2023-04-24T11:55:01;11.07;;;5.10;;
59271;SDS011;45043;51.068;7.026;2023-04-24T11:58:02;8.47;;;4.97;;
59271;SDS011;45043;51.068;7.026;2023-04-24T12:01:03;15.57;;;5.63;;
59271;SDS011;45043;51.068;7.026;2023-04-24T12:04:04;9.70;;;4.47;;
59271;SDS011;45043;51.068;7.026;2023-04-24T12:07:05;10.00;;;5.13;;
59271;SDS011;45043;51.068;7.026;2023-04-24T12:10:06;10.10;;;5.17;;
59271;SDS011;45043;51.068;7.026;2023-04-24T12:13:08;11.10;;;6.00;;
59271;SDS011;45043;51.068;7.026;2023-04-24T12:16:10;10.03;;;5.87;;
59271;SDS011;45043;51.068;7.026;2023-04-24T12:19:10;9.27;;;4.20;;
59271;SDS011;45043;51.068;7.026;2023-04-24T12:22:11;10.63;;;4.07;;
59271;SDS011;45043;51.068;7.026;2023-04-24T12:25:11;8.23;;;4.13;;
59271;SDS011;45043;51.068;7.026;2023-04-24T12:28:12;8.77;;;4.53;;
59271;SDS011;45043;51.068;7.026;2023-04-24T12:31:13;10.47;;;4.17;;
59271;SDS011;45043;51.068;7.026;2023-04-24T12:34:17;9.20;;;4.47;;
59271;SDS011;45043;51.068;7.026;2023-04-24T12:37:20;6.93;;;4.87;;
59271;SDS011;45043;51.068;7.026;2023-04-24T12:40:25;5.47;;;3.90;;
59271;SDS011;45043;51.068;7.026;2023-04-24T12:43:25;7.47;;;4.33;;
59271;SDS011;45043;51.068;7.026;2023-04-24T12:46:25;6.67;;;4.60;;
59271;SDS011;45043;51.068;7.026;2023-04-24T12:49:26;11.03;;;5.60;;
59271;SDS011;45043;51.068;7.026;2023-04-24T12:52:28;6.03;;;4.27;;
59271;SDS011;45043;51.068;7.026;2023-04-24T12:55:29;6.90;;;4.73;;
59271;SDS011;45043;51.068;7.026;2023-04-24T12:58:30;7.63;;;4.70;;
59271;SDS011;45043;51.068;7.026;2023-04-24T13:01:31;7.60;;;4.03;;
59271;SDS011;45043;51.068;7.026;2023-04-24T13:04:31;6.03;;;3.90;;
59271;SDS011;45043;51.068;7.026;2023-04-24T13:07:32;11.07;;;4.13;;
59271;SDS011;45043;51.068;7.026;2023-04-24T13:10:33;5.93;;;4.30;;
59271;SDS011;45043;51.068;7.026;2023-04-24T13:13:34;7.27;;;4.73;;
59271;SDS011;45043;51.068;7.026;2023-04-24T13:16:35;6.37;;;4.40;;
59271;SDS011;45043;51.068;7.026;2023-04-24T13:19:39;7.93;;;4.60;;
59271;SDS011;45043;51.068;7.026;2023-04-24T13:22:41;9.03;;;4.07;;
59271;SDS011;45043;51.068;7.026;2023-04-24T13:25:41;5.47;;;4.43;;
59271;SDS011;45043;51.068;7.026;2023-04-24T13:28:42;4.20;;;3.50;;
59271;SDS011;45043;51.068;7.026;2023-04-24T13:31:42;6.13;;;3.97;;
59271;SDS011;45043;51.068;7.026;2023-04-24T13:34:42;7.10;;;4.73;;
59271;SDS011;45043;51.068;7.026;2023-04-24T13:37:43;3.30;;;3.00;;
59271;SDS011;45043;51.068;7.026;2023-04-24T13:40:44;5.57;;;3.43;;
59271;SDS011;45043;51.068;7.026;2023-04-24T13:43:44;5.03;;;3.43;;
59271;SDS011;45043;51.068;7.026;2023-04-24T13:46:45;5.40;;;3.40;;
59271;SDS011;45043;51.068;7.026;2023-04-24T13:49:47;7.83;;;3.57;;
59271;SDS011;45043;51.068;7.026;2023-04-24T13:52:48;3.80;;;3.20;;
59271;SDS011;45043;51.068;7.026;2023-04-24T13:55:49;6.13;;;3.57;;
59271;SDS011;45043;51.068;7.026;2023-04-24T13:58:49;6.30;;;3.33;;
59271;SDS011;45043;51.068;7.026;2023-04-24T14:01:50;6.80;;;3.80;;
59271;SDS011;45043;51.068;7.026;2023-04-24T14:04:50;7.00;;;3.53;;
59271;SDS011;45043;51.068;7.026;2023-04-24T14:07:51;7.03;;;3.50;;
59271;SDS011;45043;51.068;7.026;2023-04-24T14:10:51;6.60;;;3.33;;
59271;SDS011;45043;51.068;7.026;2023-04-24T14:13:52;4.77;;;4.13;;
59271;SDS011;45043;51.068;7.026;2023-04-24T14:16:53;5.63;;;4.20;;
59271;SDS011;45043;51.068;7.026;2023-04-24T14:19:53;5.50;;;3.80;;
59271;SDS011;45043;51.068;7.026;2023-04-24T14:22:56;5.27;;;4.27;;
59271;SDS011;45043;51.068;7.026;2023-04-24T14:25:59;7.00;;;3.90;;
59271;SDS011;45043;51.068;7.026;2023-04-24T14:29:00;7.83;;;3.50;;
59271;SDS011;45043;51.068;7.026;2023-04-24T14:32:00;7.73;;;3.43;;
59271;SDS011;45043;51.068;7.026;2023-04-24T14:35:01;3.67;;;3.20;;
59271;SDS011;45043;51.068;7.026;2023-04-24T14:38:01;5.40;;;3.17;;
59271;SDS011;45043;51.068;7.026;2023-04-24T14:41:02;4.13;;;3.23;;
59271;SDS011;45043;51.068;7.026;2023-04-24T14:44:08;5.47;;;3.33;;
59271;SDS011;45043;51.068;7.026;2023-04-24T14:47:09;6.77;;;3.93;;
59271;SDS011;45043;51.068;7.026;2023-04-24T14:50:09;4.47;;;2.97;;
59271;SDS011;45043;51.068;7.026;2023-04-24T14:53:10;4.10;;;2.97;;
59271;SDS011;45043;51.068;7.026;2023-04-24T14:56:11;4.17;;;3.30;;
59271;SDS011;45043;51.068;7.026;2023-04-24T14:59:11;5.50;;;3.20;;
59271;SDS011;45043;51.068;7.026;2023-04-24T15:02:12;5.80;;;3.27;;
59271;SDS011;45043;51.068;7.026;2023-04-24T15:05:12;4.63;;;3.10;;
59271;SDS011;45043;51.068;7.026;2023-04-24T15:08:12;4.87;;;2.90;;
59271;SDS011;45043;51.068;7.026;2023-04-24T15:11:13;3.70;;;2.93;;
59271;SDS011;45043;51.068;7.026;2023-04-24T15:14:14;6.83;;;3.30;;
59271;SDS011;45043;51.068;7.026;2023-04-24T15:17:15;5.10;;;3.50;;
59271;SDS011;45043;51.068;7.026;2023-04-24T15:20:16;4.60;;;2.90;;
59271;SDS011;45043;51.068;7.026;2023-04-24T15:23:18;4.13;;;2.90;;
59271;SDS011;45043;51.068;7.026;2023-04-24T15:26:18;3.57;;;2.87;;
59271;SDS011;45043;51.068;7.026;2023-04-24T15:29:19;3.60;;;2.57;;
59271;SDS011;45043;51.068;7.026;2023-04-24T15:32:20;3.20;;;2.93;;
59271;SDS011;45043;51.068;7.026;2023-04-24T15:35:21;3.00;;;2.70;;
59271;SDS011;45043;51.068;7.026;2023-04-24T15:38:22;3.30;;;2.60;;
59271;SDS011;45043;51.068;7.026;2023-04-24T15:41:22;3.30;;;2.40;;
59271;SDS011;45043;51.068;7.026;2023-04-24T15:44:22;8.03;;;2.90;;
59271;SDS011;45043;51.068;7.026;2023-04-24T15:47:23;3.90;;;2.77;;
59271;SDS011;45043;51.068;7.026;2023-04-24T15:50:25;4.97;;;2.80;;
59271;SDS011;45043;51.068;7.026;2023-04-24T15:53:26;3.60;;;2.67;;
59271;SDS011;45043;51.068;7.026;2023-04-24T15:56:27;6.27;;;5.10;;
59271;SDS011;45043;51.068;7.026;2023-04-24T15:59:28;4.73;;;4.10;;
59271;SDS011;45043;51.068;7.026;2023-04-24T16:02:29;4.57;;;3.00;;
59271;SDS011;45043;51.068;7.026;2023-04-24T16:05:30;4.97;;;4.47;;
59271;SDS011;45043;51.068;7.026;2023-04-24T16:08:31;4.67;;;3.20;;
59271;SDS011;45043;51.068;7.026;2023-04-24T16:11:32;4.40;;;2.90;;
59271;SDS011;45043;51.068;7.026;2023-04-24T16:14:35;4.57;;;2.97;;
59271;SDS011;45043;51.068;7.026;2023-04-24T16:17:37;4.77;;;3.20;;
59271;SDS011;45043;51.068;7.026;2023-04-24T16:20:37;4.50;;;2.90;;
59271;SDS011;45043;51.068;7.026;2023-04-24T16:23:37;4.97;;;2.90;;
59271;SDS011;45043;51.068;7.026;2023-04-24T16:26:38;3.20;;;2.90;;
59271;SDS011;45043;51.068;7.026;2023-04-24T16:29:39;2.67;;;2.47;;
59271;SDS011;45043;51.068;7.026;2023-04-24T16:32:39;5.30;;;2.73;;
59271;SDS011;45043;51.068;7.026;2023-04-24T16:35:39;5.90;;;2.70;;
59271;SDS011;45043;51.068;7.026;2023-04-24T16:38:40;8.50;;;3.97;;
59271;SDS011;45043;51.068;7.026;2023-04-24T16:41:40;5.57;;;3.00;;
59271;SDS011;45043;51.068;7.026;2023-04-24T16:44:41;5.07;;;2.77;;
59271;SDS011;45043;51.068;7.026;2023-04-24T16:47:42;5.27;;;2.90;;
59271;SDS011;45043;51.068;7.026;2023-04-24T16:50:42;4.23;;;2.47;;
59271;SDS011;45043;51.068;7.026;2023-04-24T16:53:43;3.33;;;3.10;;
59271;SDS011;45043;51.068;7.026;2023-04-24T16:56:43;6.97;;;3.77;;
59271;SDS011;45043;51.068;7.026;2023-04-24T16:59:44;3.60;;;2.60;;
59271;SDS011;45043;51.068;7.026;2023-04-24T17:02:44;2.77;;;2.30;;
59271;SDS011;45043;51.068;7.026;2023-04-24T17:05:47;2.60;;;2.40;;
59271;SDS011;45043;51.068;7.026;2023-04-24T17:08:48;5.03;;;4.73;;
59271;SDS011;45043;51.068;7.026;2023-04-24T17:11:49;4.37;;;4.07;;
59271;SDS011;45043;51.068;7.026;2023-04-24T17:14:49;3.37;;;2.40;;
59271;SDS011;45043;51.068;7.026;2023-04-24T17:17:50;3.88;;;2.30;;
59271;SDS011;45043;51.068;7.026;2023-04-24T17:20:50;4.47;;;2.30;;
59271;SDS011;45043;51.068;7.026;2023-04-24T17:23:51;6.70;;;2.70;;
59271;SDS011;45043;51.068;7.026;2023-04-24T17:26:51;4.37;;;2.47;;
59271;SDS011;45043;51.068;7.026;2023-04-24T17:29:52;4.77;;;2.47;;
59271;SDS011;45043;51.068;7.026;2023-04-24T17:32:53;2.90;;;2.37;;
59271;SDS011;45043;51.068;7.026;2023-04-24T17:35:53;2.73;;;2.07;;
59271;SDS011;45043;51.068;7.026;2023-04-24T17:38:54;3.80;;;1.83;;
59271;SDS011;45043;51.068;7.026;2023-04-24T17:41:54;3.27;;;2.23;;
59271;SDS011;45043;51.068;7.026;2023-04-24T17:44:55;2.67;;;2.13;;
59271;SDS011;45043;51.068;7.026;2023-04-24T17:47:56;5.20;;;2.20;;
59271;SDS011;45043;51.068;7.026;2023-04-24T17:50:56;2.87;;;2.00;;
59271;SDS011;45043;51.068;7.026;2023-04-24T17:53:57;2.80;;;2.17;;
59271;SDS011;45043;51.068;7.026;2023-04-24T17:56:57;4.20;;;2.17;;
59271;SDS011;45043;51.068;7.026;2023-04-24T17:59:57;3.13;;;2.77;;
59271;SDS011;45043;51.068;7.026;2023-04-24T18:02:58;4.00;;;2.90;;
59271;SDS011;45043;51.068;7.026;2023-04-24T18:06:03;3.43;;;2.00;;
59271;SDS011;45043;51.068;7.026;2023-04-24T18:09:05;2.67;;;2.10;;
59271;SDS011;45043;51.068;7.026;2023-04-24T18:12:05;4.93;;;2.20;;
59271;SDS011;45043;51.068;7.026;2023-04-24T18:15:06;3.63;;;2.10;;